Time;durP1;ratioP1;P1;durP2;ratioP2;P2;SDS_P1;SDS_P2;PMS_P1;PMS_P2;Temp;Humidity;BMP_temperature;BMP_pressure;BME280_temperature;BME280_humidity;BME280_pressure;Samples;Min_cycle;Max_cycle;Signal;HPM_P1;HPM_P2
2022/01/08 00:01:03;;;;;;;1999.90;999.90;;;3.20;99.90;;;;;;5072517;28;20476;-70
2022/01/08 00:03:29;;;;;;;1999.90;999.90;;;3.10;99.90;;;;;;5068322;28;20443;-71
2022/01/08 00:05:57;;;;;;;1999.90;999.90;;;3.00;99.90;;;;;;5052571;28;20470;-72
2022/01/08 00:08:25;;;;;;;1999.90;999.90;;;3.00;99.90;;;;;;5051988;28;20537;-71
2022/01/08 00:10:53;;;;;;;1999.90;999.90;;;3.10;99.90;;;;;;5052232;28;20450;-71
2022/01/08 00:13:20;;;;;;;1999.90;999.90;;;3.10;99.90;;;;;;5055376;28;20545;-71
2022/01/08 00:15:47;;;;;;;1999.90;999.90;;;3.10;99.90;;;;;;5072588;28;20473;-71
2022/01/08 00:18:14;;;;;;;1999.90;999.90;;;3.10;99.90;;;;;;5072542;28;20499;-71
2022/01/08 00:20:41;;;;;;;1999.90;999.90;;;3.00;99.90;;;;;;5070052;28;20889;-71
2022/01/08 00:23:08;;;;;;;1999.90;999.90;;;3.00;99.90;;;;;;5054719;28;20450;-71
2022/01/08 00:25:36;;;;;;;1999.90;999.90;;;2.80;99.90;;;;;;5061479;28;21059;-71
2022/01/08 00:28:03;;;;;;;1999.90;999.90;;;2.80;99.90;;;;;;5058428;28;20946;-71
2022/01/08 00:30:31;;;;;;;1999.90;999.90;;;2.80;99.90;;;;;;5055047;28;20450;-71
2022/01/08 00:32:59;;;;;;;1999.90;999.90;;;2.90;99.90;;;;;;5066804;28;20532;-71
2022/01/08 00:35:26;;;;;;;1999.90;999.90;;;2.90;99.90;;;;;;5072124;28;20572;-71
2022/01/08 00:37:52;;;;;;;1999.90;999.90;;;2.80;99.90;;;;;;5068097;28;20450;-71
2022/01/08 00:40:19;;;;;;;1999.90;999.90;;;2.70;99.90;;;;;;5072062;28;20715;-73
2022/01/08 00:42:47;;;;;;;1999.90;999.90;;;2.70;99.90;;;;;;5058800;28;20482;-71
2022/01/08 00:45:14;;;;;;;1999.90;999.90;;;2.70;99.90;;;;;;5069826;28;20461;-72
2022/01/08 00:47:40;;;;;;;1999.90;999.90;;;2.60;99.90;;;;;;5054220;28;20455;-71
2022/01/08 00:50:07;;;;;;;1999.90;999.90;;;2.60;99.90;;;;;;5053031;28;20519;-71
2022/01/08 00:52:34;;;;;;;1999.90;999.90;;;2.60;99.90;;;;;;5060245;28;20446;-72
2022/01/08 00:55:01;;;;;;;1999.90;999.90;;;2.60;99.90;;;;;;5054720;28;20875;-71
2022/01/08 00:57:27;;;;;;;1999.90;999.90;;;2.60;99.90;;;;;;5068153;28;20532;-71
2022/01/08 00:59:56;;;;;;;1999.90;999.90;;;2.70;99.90;;;;;;5057681;28;20449;-71
2022/01/08 01:02:22;;;;;;;1999.90;999.90;;;2.70;99.90;;;;;;5067623;28;20559;-71
2022/01/08 01:04:49;;;;;;;1999.90;999.90;;;2.90;99.90;;;;;;5056201;28;20470;-72
2022/01/08 01:07:16;;;;;;;1999.90;999.90;;;3.00;99.90;;;;;;5057616;28;20445;-72
2022/01/08 01:09:43;;;;;;;1999.90;999.90;;;2.90;99.90;;;;;;5066081;28;20451;-73
2022/01/08 01:12:10;;;;;;;1999.90;999.90;;;2.90;99.90;;;;;;5052325;28;20792;-72
2022/01/08 01:14:37;;;;;;;1999.90;999.90;;;2.90;99.90;;;;;;5052874;28;20478;-72
2022/01/08 01:17:05;;;;;;;1999.90;999.90;;;2.90;99.90;;;;;;5059026;28;20895;-71
2022/01/08 01:19:32;;;;;;;1999.90;999.90;;;2.70;99.90;;;;;;5051332;28;20495;-71
2022/01/08 01:22:00;;;;;;;1999.90;999.90;;;2.70;99.90;;;;;;5055211;28;20528;-72
2022/01/08 01:24:28;;;;;;;1999.90;999.90;;;2.60;99.90;;;;;;5071667;28;20467;-71
2022/01/08 01:27:18;;;;;;;1999.90;999.90;;;2.50;99.90;;;;;;5071448;28;20476;-72
2022/01/08 01:29:52;;;;;;;1999.90;999.90;;;2.40;99.90;;;;;;5070004;28;20434;-71
2022/01/08 01:43:37;;;;;;;1999.90;999.90;;;2.40;99.90;;;;;;5063498;28;20454;-71
2022/01/08 01:48:49;;;;;;;1999.90;999.90;;;2.40;99.90;;;;;;5055397;28;20925;-71
2022/01/08 01:51:20;;;;;;;1999.90;999.90;;;2.40;99.90;;;;;;5055139;28;20446;-69
2022/01/08 01:53:47;;;;;;;1999.90;999.90;;;2.30;99.90;;;;;;5070659;28;20444;-72
2022/01/08 01:56:15;;;;;;;1999.90;999.90;;;2.30;99.90;;;;;;5058302;28;20512;-71
2022/01/08 01:58:42;;;;;;;1999.90;999.90;;;2.30;99.90;;;;;;5055407;28;20515;-71
2022/01/08 02:01:09;;;;;;;1999.90;999.90;;;2.30;99.90;;;;;;5064701;28;20476;-73
2022/01/08 02:03:36;;;;;;;1999.90;999.90;;;2.40;99.90;;;;;;5072784;28;20450;-72
2022/01/08 02:06:04;;;;;;;1999.90;999.90;;;2.30;99.90;;;;;;5074588;28;20469;-72
2022/01/08 02:08:30;;;;;;;1999.90;999.90;;;2.30;99.90;;;;;;5073220;28;20507;-71
2022/01/08 02:10:57;;;;;;;1999.90;999.90;;;2.30;99.90;;;;;;5067029;28;20508;-71
2022/01/08 02:13:25;;;;;;;1999.90;999.90;;;2.30;99.90;;;;;;5057211;28;20453;-73
2022/01/08 02:15:53;;;;;;;1999.90;999.90;;;2.40;99.90;;;;;;5074933;28;20468;-71
2022/01/08 02:18:20;;;;;;;1999.90;999.90;;;2.50;99.90;;;;;;5054800;28;20549;-71
2022/01/08 02:20:48;;;;;;;1999.90;999.90;;;2.70;99.90;;;;;;5062693;28;20965;-71
2022/01/08 02:23:15;;;;;;;1999.90;999.90;;;2.80;99.90;;;;;;5056051;28;20477;-71
2022/01/08 02:25:42;;;;;;;1999.90;999.90;;;2.90;99.90;;;;;;5058828;28;20469;-71
2022/01/08 02:28:08;;;;;;;1999.90;999.90;;;3.00;99.90;;;;;;5074118;28;20446;-71
2022/01/08 02:30:35;;;;;;;1999.90;999.90;;;3.00;99.90;;;;;;5062917;28;20548;-71
2022/01/08 02:33:02;;;;;;;1999.90;999.90;;;3.10;99.90;;;;;;5054773;28;20447;-72
2022/01/08 02:35:29;;;;;;;1999.90;999.90;;;3.20;99.90;;;;;;5054396;28;20471;-71
2022/01/08 02:37:57;;;;;;;1999.90;999.90;;;3.10;99.90;;;;;;5054359;28;20449;-72
2022/01/08 02:40:24;;;;;;;1999.90;999.90;;;3.10;99.90;;;;;;5057902;28;20442;-71
2022/01/08 02:42:53;;;;;;;1999.90;999.90;;;3.10;99.90;;;;;;5074272;28;20530;-72
2022/01/08 02:45:21;;;;;;;1999.90;999.90;;;3.10;99.90;;;;;;5073431;28;20465;-71
2022/01/08 02:47:48;;;;;;;1999.90;999.90;;;3.00;99.90;;;;;;5074517;28;20453;-72
2022/01/08 02:50:15;;;;;;;1999.90;999.90;;;2.90;99.90;;;;;;5071260;28;20481;-71
2022/01/08 02:52:42;;;;;;;1999.90;999.90;;;2.90;99.90;;;;;;5054393;28;20448;-71
2022/01/08 02:55:13;;;;;;;1999.90;999.90;;;2.90;99.90;;;;;;5054146;28;20466;-71
2022/01/08 02:57:40;;;;;;;1999.90;999.90;;;2.90;99.90;;;;;;5054448;28;20476;-72
2022/01/08 03:00:11;;;;;;;1999.90;999.90;;;2.80;99.90;;;;;;5054529;28;21163;-69
2022/01/08 03:02:41;;;;;;;1999.90;999.90;;;2.70;99.90;;;;;;5074092;28;20466;-71
2022/01/08 03:05:10;;;;;;;1999.90;999.90;;;2.70;99.90;;;;;;5068489;28;20478;-71
2022/01/08 03:07:38;;;;;;;1999.90;999.90;;;2.70;99.90;;;;;;5061801;28;20461;-71
2022/01/08 03:10:05;;;;;;;1999.90;999.90;;;2.70;99.90;;;;;;5053418;28;20500;-71
2022/01/08 03:12:33;;;;;;;1999.90;999.90;;;2.80;99.90;;;;;;5056608;28;21272;-71
2022/01/08 03:15:00;;;;;;;1999.90;999.90;;;2.80;99.90;;;;;;5071989;28;20523;-71
2022/01/08 03:17:26;;;;;;;1999.90;999.90;;;2.80;99.90;;;;;;5066604;28;20446;-71
2022/01/08 03:19:59;;;;;;;1999.90;999.90;;;2.80;99.90;;;;;;5067555;28;20462;-70
2022/01/08 03:22:28;;;;;;;1999.90;999.90;;;2.70;99.90;;;;;;5055909;28;20508;-71
2022/01/08 03:24:55;;;;;;;1999.90;999.90;;;2.70;99.90;;;;;;5053578;28;20470;-72
2022/01/08 03:27:21;;;;;;;1999.90;999.90;;;2.70;99.90;;;;;;5060933;28;20446;-71
2022/01/08 03:29:49;;;;;;;1999.90;999.90;;;2.80;99.90;;;;;;5059217;28;20446;-73
2022/01/08 03:32:16;;;;;;;1999.90;999.90;;;2.90;99.90;;;;;;5072163;28;20449;-71
2022/01/08 03:34:43;;;;;;;1999.90;999.90;;;3.00;99.90;;;;;;5056720;28;20516;-72
2022/01/08 03:37:09;;;;;;;1999.90;999.90;;;3.00;99.90;;;;;;5057174;28;20471;-71
2022/01/08 03:39:36;;;;;;;1999.90;999.90;;;3.00;99.90;;;;;;5073163;28;20900;-71
2022/01/08 03:42:03;;;;;;;1999.90;999.90;;;3.00;99.90;;;;;;5073107;28;20905;-72
2022/01/08 03:44:30;;;;;;;1999.90;999.90;;;3.10;99.90;;;;;;5073001;28;20465;-71
2022/01/08 03:47:21;;;;;;;1999.90;999.90;;;3.10;99.90;;;;;;5072335;28;20445;-71
2022/01/08 03:49:45;;;;;;;1999.90;999.90;;;3.10;99.90;;;;;;5072675;28;20446;-71
2022/01/08 03:52:12;;;;;;;1999.90;999.90;;;3.10;99.90;;;;;;5072916;28;20499;-71
2022/01/08 03:54:39;;;;;;;1999.90;999.90;;;3.20;99.90;;;;;;5072978;28;20551;-71
2022/01/08 03:57:06;;;;;;;1999.90;999.90;;;3.20;99.90;;;;;;5069605;28;20442;-75
2022/01/08 03:59:33;;;;;;;1999.90;999.90;;;3.10;99.90;;;;;;5053079;28;20455;-71
2022/01/08 04:02:02;;;;;;;1999.90;999.90;;;3.20;99.90;;;;;;5052608;28;20535;-71
2022/01/08 04:04:28;;;;;;;1999.90;999.90;;;3.10;99.90;;;;;;5052811;28;20462;-71
2022/01/08 04:06:55;;;;;;;1999.90;999.90;;;3.00;99.90;;;;;;5053615;28;20508;-71
2022/01/08 04:09:22;;;;;;;1999.90;999.90;;;3.20;99.90;;;;;;5052717;28;20442;-70
2022/01/08 04:11:49;;;;;;;1999.90;999.90;;;3.20;99.90;;;;;;5055518;28;20450;-71
2022/01/08 04:14:17;;;;;;;1999.90;999.90;;;3.30;99.90;;;;;;5070499;28;20465;-71
2022/01/08 04:16:47;;;;;;;1999.90;999.90;;;3.20;99.90;;;;;;5072064;28;20976;-73
2022/01/08 04:19:16;;;;;;;1999.90;999.90;;;3.10;99.90;;;;;;5052609;28;20462;-72
2022/01/08 04:22:09;;;;;;;1999.90;999.90;;;3.00;99.90;;;;;;5061240;28;20947;-71
2022/01/08 04:24:36;;;;;;;1999.90;999.90;;;3.00;99.90;;;;;;5065320;28;20469;-71
2022/01/08 04:27:03;;;;;;;1999.90;999.90;;;3.00;99.90;;;;;;5070215;28;20457;-72
2022/01/08 04:29:29;;;;;;;1999.90;999.90;;;3.00;99.90;;;;;;5067729;28;20446;-71
2022/01/08 04:31:56;;;;;;;1999.90;999.90;;;3.00;99.90;;;;;;5058752;28;20864;-71
2022/01/08 04:34:24;;;;;;;1999.90;999.90;;;2.90;99.90;;;;;;5064153;28;20515;-70
2022/01/08 04:36:51;;;;;;;1999.90;999.90;;;2.80;99.90;;;;;;5052299;28;20442;-71
2022/01/08 04:39:17;;;;;;;1999.90;999.90;;;2.90;99.90;;;;;;5072339;28;20473;-71
2022/01/08 04:41:45;;;;;;;1999.90;999.90;;;2.90;99.90;;;;;;5071608;28;20449;-71
2022/01/08 04:44:12;;;;;;;1999.90;999.90;;;2.90;99.90;;;;;;5072243;28;20522;-72
2022/01/08 04:46:41;;;;;;;1999.90;999.90;;;2.90;99.90;;;;;;5072105;28;20445;-71
2022/01/08 04:49:07;;;;;;;1999.90;999.90;;;2.90;99.90;;;;;;5053240;28;20480;-71
2022/01/08 04:51:36;;;;;;;1999.90;999.90;;;2.90;99.90;;;;;;5051986;28;20870;-73
2022/01/08 04:54:03;;;;;;;1999.90;999.90;;;2.80;99.90;;;;;;5051916;28;20438;-73
2022/01/08 04:56:29;;;;;;;1999.90;999.90;;;2.90;99.90;;;;;;5051907;28;20442;-72
2022/01/08 04:58:56;;;;;;;1999.90;999.90;;;2.90;99.90;;;;;;5068907;28;20495;-71
2022/01/08 05:01:23;;;;;;;1999.90;999.90;;;2.90;99.90;;;;;;5071790;28;20453;-73
2022/01/08 05:03:49;;;;;;;1999.90;999.90;;;2.90;99.90;;;;;;5071684;28;20554;-72
2022/01/08 05:06:16;;;;;;;1999.90;999.90;;;2.80;99.90;;;;;;5068217;28;20498;-71
2022/01/08 05:08:44;;;;;;;1999.90;999.90;;;2.80;99.90;;;;;;5064761;28;20453;-71
2022/01/08 05:11:11;;;;;;;1999.90;999.90;;;2.80;99.90;;;;;;5066536;28;20450;-71
2022/01/08 05:13:38;;;;;;;1999.90;999.90;;;2.80;99.90;;;;;;5052760;28;20511;-71
2022/01/08 05:16:05;;;;;;;1999.90;999.90;;;2.70;99.90;;;;;;5051580;28;21005;-71
2022/01/08 05:18:33;;;;;;;1999.90;999.90;;;2.70;99.90;;;;;;5056101;28;20446;-71
2022/01/08 05:21:10;;;;;;;1999.90;999.90;;;2.60;99.90;;;;;;5059348;28;20900;-71
2022/01/08 05:23:37;;;;;;;1999.90;999.90;;;2.70;99.90;;;;;;5058205;28;20846;-71
2022/01/08 05:26:05;;;;;;;1999.90;999.90;;;2.90;99.90;;;;;;5055870;28;20519;-71
2022/01/08 05:28:32;;;;;;;1999.90;999.90;;;3.00;99.90;;;;;;5072240;28;20454;-71
2022/01/08 05:30:59;;;;;;;1999.90;999.90;;;3.00;99.90;;;;;;5071098;28;20473;-71
2022/01/08 05:33:26;;;;;;;1999.90;999.90;;;3.10;99.90;;;;;;5052075;28;20446;-73
2022/01/08 05:35:52;;;;;;;1999.90;999.90;;;3.00;99.90;;;;;;5067866;28;20518;-71
2022/01/08 05:38:19;;;;;;;1999.90;999.90;;;2.90;99.90;;;;;;5065269;28;20490;-71
2022/01/08 05:40:46;;;;;;;1999.90;999.90;;;2.90;99.90;;;;;;5068436;28;20487;-71
2022/01/08 05:43:14;;;;;;;1999.90;999.90;;;2.90;99.90;;;;;;5051347;28;20485;-71
2022/01/08 05:45:41;;;;;;;1999.90;999.90;;;2.90;99.90;;;;;;5053232;28;20516;-71
2022/01/08 05:48:08;;;;;;;1999.90;999.90;;;2.90;99.90;;;;;;5065580;28;20446;-71
2022/01/08 05:50:35;;;;;;;1999.90;999.90;;;2.80;99.90;;;;;;5070302;28;20448;-71
2022/01/08 05:53:02;;;;;;;1999.90;999.90;;;2.70;99.90;;;;;;5052231;28;20857;-71
2022/01/08 05:55:29;;;;;;;1999.90;999.90;;;2.70;99.90;;;;;;5068143;28;20465;-72
2022/01/08 05:57:55;;;;;;;1999.90;999.90;;;2.60;99.90;;;;;;5065398;28;20454;-73
2022/01/08 06:00:24;;;;;;;1999.90;999.90;;;2.60;99.90;;;;;;5064670;28;20508;-71
2022/01/08 06:02:50;;;;;;;1999.90;999.90;;;2.60;99.90;;;;;;5056935;28;20900;-71
2022/01/08 06:05:17;;;;;;;1999.90;999.90;;;2.60;99.90;;;;;;5051398;28;20462;-71
2022/01/08 06:07:44;;;;;;;1999.90;999.90;;;2.50;99.90;;;;;;5060195;28;20454;-70
2022/01/08 06:10:10;;;;;;;1999.90;999.90;;;2.50;99.90;;;;;;5050611;28;20471;-71
2022/01/08 06:12:37;;;;;;;1999.90;999.90;;;2.50;99.90;;;;;;5067782;28;20450;-71
2022/01/08 06:15:05;;;;;;;1999.90;999.90;;;2.40;99.90;;;;;;5069408;28;20518;-70
2022/01/08 06:17:33;;;;;;;1999.90;999.90;;;2.40;99.90;;;;;;5065555;28;20475;-71
2022/01/08 06:19:59;;;;;;;1999.90;999.90;;;2.40;99.90;;;;;;5071468;28;20457;-71
2022/01/08 06:22:26;;;;;;;1999.90;999.90;;;2.30;99.90;;;;;;5059012;28;20950;-71
2022/01/08 06:24:53;;;;;;;1999.90;999.90;;;2.30;99.90;;;;;;5059689;28;20534;-71
2022/01/08 06:27:19;;;;;;;1999.90;999.90;;;2.30;99.90;;;;;;5068606;28;20476;-73
2022/01/08 06:29:46;;;;;;;1999.90;999.90;;;2.40;99.90;;;;;;5066378;28;20507;-71
2022/01/08 06:32:14;;;;;;;1999.90;999.90;;;2.40;99.90;;;;;;5065514;28;20446;-71
2022/01/08 06:34:42;;;;;;;1999.90;999.90;;;2.30;99.90;;;;;;5065328;28;20466;-71
2022/01/08 06:37:09;;;;;;;1999.90;999.90;;;2.30;99.90;;;;;;5054351;28;20951;-72
2022/01/08 06:39:35;;;;;;;1999.90;999.90;;;2.30;99.90;;;;;;5073315;28;20454;-71
2022/01/08 06:42:03;;;;;;;1999.90;999.90;;;2.20;99.90;;;;;;5074060;28;20510;-71
2022/01/08 06:44:29;;;;;;;1999.90;999.90;;;2.20;99.90;;;;;;5074381;28;20924;-72
2022/01/08 06:46:56;;;;;;;1999.90;999.90;;;2.20;99.90;;;;;;5074218;28;20454;-71
2022/01/08 06:49:23;;;;;;;1999.90;999.90;;;2.20;99.90;;;;;;5056376;28;20458;-68
2022/01/08 06:51:51;;;;;;;1999.90;999.90;;;2.20;99.90;;;;;;5053867;28;20454;-73
2022/01/08 06:54:17;;;;;;;1999.90;999.90;;;2.20;99.90;;;;;;5054346;28;20866;-73
2022/01/08 06:56:44;;;;;;;1999.90;999.90;;;2.10;99.90;;;;;;5054255;28;20454;-71
2022/01/08 06:59:11;;;;;;;1999.90;999.90;;;2.10;99.90;;;;;;5069238;28;20445;-71
2022/01/08 07:01:38;;;;;;;1999.90;999.90;;;2.10;99.90;;;;;;5073893;28;20446;-71
2022/01/08 07:04:05;;;;;;;1999.90;999.90;;;2.10;99.90;;;;;;5073680;28;20534;-73
2022/01/08 07:06:31;;;;;;;1999.90;999.90;;;2.00;99.90;;;;;;5069423;28;20442;-72
2022/01/08 07:08:59;;;;;;;1999.90;999.90;;;2.00;99.90;;;;;;5067506;28;20507;-71
2022/01/08 07:11:26;;;;;;;1999.90;999.90;;;1.90;99.90;;;;;;5073571;28;20449;-71
2022/01/08 07:13:53;;;;;;;1999.90;999.90;;;1.80;99.90;;;;;;5071817;28;20487;-68
2022/01/08 07:16:19;;;;;;;1999.90;999.90;;;1.80;99.90;;;;;;5073428;28;20519;-71
2022/01/08 07:18:46;;;;;;;1999.90;999.90;;;1.70;99.90;;;;;;5057586;28;20453;-71
2022/01/08 07:21:13;;;;;;;1999.90;999.90;;;1.70;99.90;;;;;;5060349;28;20511;-71
2022/01/08 07:23:39;;;;;;;1999.90;999.90;;;1.60;99.90;;;;;;5062450;28;20478;-71
2022/01/08 07:26:07;;;;;;;1999.90;999.90;;;1.50;99.90;;;;;;5058991;28;20537;-72
2022/01/08 07:28:34;;;;;;;1999.90;999.90;;;1.50;99.90;;;;;;5067252;28;20441;-70
2022/01/08 07:31:01;;;;;;;1999.90;999.90;;;1.50;99.90;;;;;;5071079;28;20457;-71
2022/01/08 07:33:28;;;;;;;1999.90;999.90;;;1.50;99.90;;;;;;5072915;28;20442;-71
2022/01/08 07:35:54;;;;;;;1999.90;999.90;;;1.40;99.90;;;;;;5064188;28;21042;-69
2022/01/08 07:38:22;;;;;;;1999.90;999.90;;;1.50;99.90;;;;;;5063897;28;20446;-71
2022/01/08 07:40:51;;;;;;;1999.90;999.90;;;1.40;99.90;;;;;;5054282;28;20922;-73
2022/01/08 07:43:19;;;;;;;1999.90;999.90;;;1.40;99.90;;;;;;5067107;28;20482;-72
2022/01/08 07:45:46;;;;;;;1999.90;999.90;;;1.30;99.90;;;;;;5052793;28;20474;-73
2022/01/08 07:48:12;;;;;;;1999.90;999.90;;;1.30;99.90;;;;;;5054684;28;20461;-71
2022/01/08 07:50:39;;;;;;;1999.90;999.90;;;1.30;99.90;;;;;;5069639;28;20449;-71
2022/01/08 07:53:06;;;;;;;1999.90;999.90;;;1.30;99.90;;;;;;5073528;28;20445;-71
2022/01/08 07:55:32;;;;;;;1999.90;999.90;;;1.50;99.90;;;;;;5055366;28;20474;-73
2022/01/08 07:57:59;;;;;;;1999.90;999.90;;;1.60;99.90;;;;;;5062828;28;20503;-71
2022/01/08 08:00:27;;;;;;;1999.90;999.90;;;1.70;99.90;;;;;;5053019;28;20579;-71
2022/01/08 08:02:53;;;;;;;1999.90;999.90;;;1.80;99.90;;;;;;5061333;28;20457;-71
2022/01/08 08:05:20;;;;;;;1999.90;999.90;;;1.90;99.90;;;;;;5072549;28;21043;-71
2022/01/08 08:07:47;;;;;;;1999.90;999.90;;;1.90;99.90;;;;;;5063904;28;20511;-71
2022/01/08 08:10:17;;;;;;;1999.90;999.90;;;2.00;99.90;;;;;;5052520;28;20865;-72
2022/01/08 08:12:44;;;;;;;1999.90;999.90;;;2.10;99.90;;;;;;5053852;28;21088;-71
2022/01/08 08:15:13;;;;;;;1999.90;999.90;;;2.10;99.90;;;;;;5052480;28;20462;-70
2022/01/08 08:17:41;;;;;;;1999.90;999.90;;;2.20;99.90;;;;;;5059875;28;20446;-71
2022/01/08 08:20:09;;;;;;;1999.90;999.90;;;2.30;99.90;;;;;;5052450;28;20497;-71
2022/01/08 08:22:35;;;;;;;1999.90;999.90;;;2.40;99.90;;;;;;5059803;28;20461;-71
2022/01/08 08:25:02;;;;;;;1999.90;999.90;;;2.40;99.90;;;;;;5068928;28;20838;-72
2022/01/08 08:27:30;;;;;;;1999.90;999.90;;;2.40;99.90;;;;;;5064989;28;20504;-71
2022/01/08 08:29:56;;;;;;;1999.90;999.90;;;2.50;99.90;;;;;;5053252;28;20902;-71
2022/01/08 08:32:23;;;;;;;1999.90;999.90;;;2.50;99.90;;;;;;5052398;28;20506;-71
2022/01/08 08:34:51;;;;;;;1999.90;999.90;;;2.70;99.90;;;;;;5071397;28;20532;-71
2022/01/08 08:37:18;;;;;;;1999.90;999.90;;;2.70;99.90;;;;;;5070346;28;20536;-71
2022/01/08 08:39:45;;;;;;;1999.90;999.90;;;2.80;99.90;;;;;;5060553;28;20512;-69
2022/01/08 08:42:12;;;;;;;1999.90;999.90;;;2.90;99.90;;;;;;5051437;28;20462;-71
2022/01/08 08:44:38;;;;;;;1999.90;999.90;;;2.80;99.90;;;;;;5061344;28;20531;-71
2022/01/08 08:47:06;;;;;;;1999.90;999.90;;;2.80;99.90;;;;;;5071235;28;20449;-71
2022/01/08 08:49:33;;;;;;;1999.90;999.90;;;2.80;99.90;;;;;;5063659;28;20450;-71
2022/01/08 08:52:01;;;;;;;1999.90;999.90;;;2.80;99.90;;;;;;5052132;28;20446;-71
2022/01/08 08:54:28;;;;;;;1999.90;999.90;;;2.90;99.90;;;;;;5065623;28;20885;-71
2022/01/08 08:56:55;;;;;;;1999.90;999.90;;;2.90;99.90;;;;;;5052609;28;20462;-72
2022/01/08 08:59:23;;;;;;;1999.90;999.90;;;3.10;99.90;;;;;;5053075;28;20492;-70
2022/01/08 09:01:49;;;;;;;1999.90;999.90;;;3.30;99.90;;;;;;5069090;28;20548;-70
2022/01/08 09:04:16;;;;;;;1999.90;999.90;;;3.50;99.90;;;;;;5052950;28;20486;-71
2022/01/08 09:06:43;;;;;;;1999.90;999.90;;;3.50;99.90;;;;;;5053312;28;20454;-71
2022/01/08 09:09:11;;;;;;;1999.90;999.90;;;3.60;99.90;;;;;;5051717;28;20454;-71
2022/01/08 09:11:37;;;;;;;1999.90;999.90;;;3.70;99.90;;;;;;5055979;28;20499;-71
2022/01/08 09:14:04;;;;;;;1999.90;999.90;;;3.70;99.90;;;;;;5071386;28;20861;-71
2022/01/08 09:16:31;;;;;;;1999.90;999.90;;;3.90;99.90;;;;;;5068848;28;21015;-71
2022/01/08 09:18:58;;;;;;;1999.90;999.90;;;4.00;99.90;;;;;;5051793;28;20441;-71
2022/01/08 09:21:25;;;;;;;1999.90;999.90;;;4.00;99.90;;;;;;5051885;28;20454;-72
2022/01/08 09:23:52;;;;;;;1999.90;999.90;;;4.20;99.90;;;;;;5052438;28;20488;-72
2022/01/08 09:26:20;;;;;;;1999.90;999.90;;;4.20;99.90;;;;;;5063977;28;20449;-71
2022/01/08 09:28:46;;;;;;;1999.90;999.90;;;4.20;99.90;;;;;;5052737;28;20442;-72
2022/01/08 09:31:14;;;;;;;1999.90;999.90;;;4.30;99.90;;;;;;5063605;28;20507;-71
2022/01/08 09:33:40;;;;;;;1999.90;999.90;;;4.40;99.90;;;;;;5073774;28;20511;-71
2022/01/08 09:36:07;;;;;;;1999.90;999.90;;;4.50;99.90;;;;;;5063850;28;20523;-70
2022/01/08 09:38:34;;;;;;;1999.90;999.90;;;4.50;99.90;;;;;;5072143;28;20977;-71
2022/01/08 09:41:00;;;;;;;1999.90;999.90;;;4.60;99.90;;;;;;5063760;28;20942;-71
2022/01/08 09:43:29;;;;;;;1999.90;999.90;;;4.60;99.90;;;;;;5052692;28;20488;-72
2022/01/08 09:45:56;;;;;;;1999.90;999.90;;;4.70;99.90;;;;;;5054123;28;20532;-71
2022/01/08 09:48:22;;;;;;;1999.90;999.90;;;4.60;99.90;;;;;;5070399;28;20450;-71
2022/01/08 09:50:49;;;;;;;1999.90;999.90;;;4.70;99.90;;;;;;5067784;28;20450;-72
2022/01/08 09:53:16;;;;;;;1999.90;999.90;;;4.70;99.90;;;;;;5053646;28;20447;-72
2022/01/08 09:55:42;;;;;;;1999.90;999.90;;;4.70;99.90;;;;;;5056668;28;20982;-72
2022/01/08 09:58:11;;;;;;;1999.90;999.90;;;4.80;99.90;;;;;;5069362;28;20453;-71
2022/01/08 10:00:39;;;;;;;1999.90;999.90;;;4.80;99.90;;;;;;5055783;28;20543;-72
2022/01/08 10:03:20;;;;;;;1999.90;999.90;;;4.80;99.90;;;;;;5057037;28;20512;-71
2022/01/08 10:05:49;;;;;;;1999.90;999.90;;;4.90;99.90;;;;;;5076441;28;20480;-72
2022/01/08 10:08:16;;;;;;;1999.90;999.90;;;4.80;99.90;;;;;;5060248;28;20456;-72
2022/01/08 10:10:55;;;;;;;1999.90;999.90;;;4.80;99.90;;;;;;5074849;28;20539;-72
2022/01/08 10:13:24;;;;;;;1999.90;999.90;;;4.80;99.90;;;;;;5073562;28;20477;-72
2022/01/08 10:18:40;;;;;;;1999.90;999.90;;;4.80;99.90;;;;;;5069881;28;20446;-72
2022/01/08 10:21:18;;;;;;;1999.90;999.90;;;4.80;99.90;;;;;;5054835;28;20445;-71
2022/01/08 10:23:47;;;;;;;1999.90;999.90;;;4.80;99.90;;;;;;5054822;28;20496;-70
2022/01/08 10:26:16;;;;;;;1999.90;999.90;;;4.80;99.90;;;;;;5054583;28;20970;-72
2022/01/08 10:28:45;;;;;;;1999.90;999.90;;;4.80;99.90;;;;;;5074582;28;20480;-72
2022/01/08 10:31:16;;;;;;;1999.90;999.90;;;4.80;99.90;;;;;;5074621;28;20453;-72
2022/01/08 10:33:45;;;;;;;1999.90;999.90;;;4.80;99.90;;;;;;5074764;28;20456;-72
2022/01/08 10:36:12;;;;;;;1999.90;999.90;;;4.80;99.90;;;;;;5075174;28;20831;-72
2022/01/08 10:38:39;;;;;;;1999.90;999.90;;;4.80;99.90;;;;;;5056651;28;20457;-72
2022/01/08 10:41:14;;;;;;;1999.90;999.90;;;4.90;99.90;;;;;;5055153;28;20442;-71
2022/01/08 10:43:41;;;;;;;1999.90;999.90;;;5.30;99.90;;;;;;5055777;28;20542;-72
2022/01/08 10:46:13;;;;;;;1999.90;999.90;;;5.00;99.90;;;;;;5069766;28;20469;-76
2022/01/08 10:48:44;;;;;;;1999.90;999.90;;;5.10;99.90;;;;;;5070049;28;20446;-74
2022/01/08 10:51:14;;;;;;;1999.90;999.90;;;5.20;99.90;;;;;;5074178;28;20460;-71
2022/01/08 10:54:05;;;;;;;1999.90;999.90;;;5.40;99.90;;;;;;5078877;28;20449;-72
2022/01/08 10:56:34;;;;;;;1999.90;999.90;;;5.50;99.90;;;;;;5078476;28;20446;-71
2022/01/08 10:59:05;;;;;;;1999.90;999.90;;;5.50;99.90;;;;;;5077730;28;20495;-71
2022/01/08 11:01:41;;;;;;;1999.90;999.90;;;5.50;99.90;;;;;;5066513;28;20453;-71
2022/01/08 11:04:11;;;;;;;1999.90;999.90;;;5.60;99.90;;;;;;5057902;28;20482;-72
2022/01/08 11:06:55;;;;;;;1999.90;999.90;;;5.60;99.90;;;;;;5058464;28;20484;-71
2022/01/08 11:09:23;;;;;;;1999.90;999.90;;;5.70;99.90;;;;;;5069309;28;20431;-72
2022/01/08 11:11:50;;;;;;;1999.90;999.90;;;5.70;99.90;;;;;;5057657;28;20446;-73
2022/01/08 11:14:44;;;;;;;1999.90;999.90;;;5.70;99.90;;;;;;5056511;28;20462;-71
2022/01/08 11:17:13;;;;;;;1999.90;999.90;;;5.60;99.90;;;;;;5057076;28;20441;-72
2022/01/08 11:19:44;;;;;;;1999.90;999.90;;;5.60;99.90;;;;;;5078227;28;20437;-72
2022/01/08 11:22:13;;;;;;;1999.90;999.90;;;5.70;99.90;;;;;;5076398;28;20445;-71
2022/01/08 11:24:44;;;;;;;1999.90;999.90;;;5.70;99.90;;;;;;5070720;28;20909;-74
2022/01/08 11:27:13;;;;;;;1999.90;999.90;;;5.70;99.90;;;;;;5074378;28;20453;-72
2022/01/08 11:29:41;;;;;;;1999.90;999.90;;;5.60;99.90;;;;;;5053728;28;20938;-72
2022/01/08 11:32:09;;;;;;;1999.90;999.90;;;5.30;99.90;;;;;;5055225;28;20442;-72
2022/01/08 11:34:38;;;;;;;1999.90;999.90;;;5.40;99.90;;;;;;5067842;28;20512;-72
2022/01/08 11:37:08;;;;;;;1999.90;999.90;;;5.50;99.90;;;;;;5072548;28;20445;-72
2022/01/08 11:39:35;;;;;;;1999.90;999.90;;;5.40;99.90;;;;;;5072081;28;20461;-72
2022/01/08 11:42:02;;;;;;;1999.90;999.90;;;5.50;99.90;;;;;;5074576;28;21106;-73
2022/01/08 11:44:32;;;;;;;1999.90;999.90;;;5.50;99.90;;;;;;5059710;28;20531;-72
2022/01/08 11:47:00;;;;;;;1999.90;999.90;;;5.50;99.90;;;;;;5055412;28;20500;-72
2022/01/08 11:49:27;;;;;;;1999.90;999.90;;;5.40;99.90;;;;;;5058008;28;20491;-72
2022/01/08 11:52:16;;;;;;;1999.90;999.90;;;5.40;99.90;;;;;;5072651;28;20945;-71
2022/01/08 11:54:44;;;;;;;1999.90;999.90;;;5.50;99.90;;;;;;5074501;28;20969;-72
2022/01/08 11:57:23;;;;;;;1999.90;999.90;;;5.50;99.90;;;;;;5075825;28;20945;-73
2022/01/08 11:59:56;;;;;;;1999.90;999.90;;;5.50;99.90;;;;;;5073440;28;20442;-71
2022/01/08 12:02:33;;;;;;;1999.90;999.90;;;5.50;99.90;;;;;;5053468;28;20454;-72
2022/01/08 12:04:59;;;;;;;1999.90;999.90;;;5.30;99.90;;;;;;5053233;28;20575;-72
2022/01/08 12:07:34;;;;;;;1999.90;999.90;;;5.10;99.90;;;;;;5053674;28;20486;-72
2022/01/08 12:10:13;;;;;;;1999.90;999.90;;;5.20;99.90;;;;;;5054745;28;20450;-70
2022/01/08 12:12:59;;;;;;;1999.90;999.90;;;5.30;99.90;;;;;;5067252;28;20480;-70
2022/01/08 12:15:46;;;;;;;1999.90;999.90;;;5.50;99.90;;;;;;5076288;28;21138;-71
2022/01/08 12:18:15;;;;;;;1999.90;999.90;;;5.50;99.90;;;;;;5061560;28;20825;-72
2022/01/08 12:20:44;;;;;;;1999.90;999.90;;;5.50;99.90;;;;;;5056996;28;20453;-72
2022/01/08 12:23:34;;;;;;;1999.90;999.90;;;5.40;99.90;;;;;;5064529;28;20442;-72
2022/01/08 12:26:03;;;;;;;1999.90;999.90;;;5.30;99.90;;;;;;5065801;28;20489;-72
2022/01/08 12:28:56;;;;;;;1999.90;999.90;;;5.20;99.90;;;;;;5068903;28;20441;-71
2022/01/08 12:31:42;;;;;;;1999.90;999.90;;;5.10;99.90;;;;;;5072635;28;20450;-72